F/V Le Dolmen — FHMD — position and weather

sailwx.info

Track history (hours):
 
Tides and Currents Weather Stations Pressure Air Temp Water Temp Dewpoint Dewpoint Depression Visibility Wind Speed Wind Dir Waves Ship Positions

F/V Le Dolmen

Last reported at 2016-May-30 00:33 UTC. Time now 2016-May-30 01:03 UTC.
Position N 47°44' W 003°22'.

Length 18 m.

Type: Fishing. MMSI: 228374000.

Date/timePositionNaut miles runAvg speedWind from/ knotsBaromVisibWave heightAir tempDewpointWater temp
2016-May-30 00:33N 47°44' W 003°22'0 0.0
2016-May-29 23:33N 47°44' W 003°22'0 0.0
2016-May-29 22:33N 47°44' W 003°22'0 0.0
2016-May-29 21:34N 47°44' W 003°22'0 0.0
2016-May-29 20:33N 47°44' W 003°22'0 0.0
2016-May-29 19:33N 47°44' W 003°22'0 0.0
2016-May-29 18:33N 47°44' W 003°22'0 0.0
2016-May-29 17:33N 47°44' W 003°22'0 0.0
2016-May-29 16:33N 47°44' W 003°22'0 0.0
2016-May-29 15:33N 47°44' W 003°22'0 0.0
2016-May-29 14:33N 47°44' W 003°22'0 0.0
2016-May-29 13:33N 47°44' W 003°22'3 3.5
2016-May-29 12:34N 47°41' W 003°25'7 6.5
2016-May-29 11:33N 47°39' W 003°34'7 6.6
2016-May-29 10:32N 47°36' W 003°43'37 2.0
2016-May-28 16:12N 47°26' W 004°36'2 2.3
2016-May-28 15:17N 47°28' W 004°37'1 0.1
2016-May-28 07:30N 47°27' W 004°37'2 2.0
2016-May-28 06:33N 47°25' W 004°38'1 0.7
2016-May-28 04:24N 47°27' W 004°38'1 1.4
2016-May-28 03:32N 47°25' W 004°37'6 0.3
2016-May-27 09:08N 47°25' W 004°46'49 2.2
2016-May-26 11:08N 47°39' W 003°36'6 9.8
2016-May-26 10:33N 47°40' W 003°28'5 5.1
2016-May-26 09:33N 47°44' W 003°22'0 0.0
2016-May-26 08:33N 47°44' W 003°22'0 0.0
2016-May-26 07:33N 47°44' W 003°22'0 0.0
2016-May-26 06:32N 47°44' W 003°22'0 0.0
2016-May-26 05:33N 47°44' W 003°22'0 0.0
2016-May-26 04:33N 47°44' W 003°22'0 0.0
2016-May-26 03:33N 47°44' W 003°22'0 0.0
2016-May-26 02:33N 47°44' W 003°22'0 0.0
2016-May-26 01:33N 47°44' W 003°22'0 0.0
2016-May-26 00:33N 47°44' W 003°22'0 0.0
2016-May-25 23:33N 47°44' W 003°22'0 0.1
2016-May-25 22:33N 47°44' W 003°22'0 0.0
2016-May-25 21:33N 47°44' W 003°22'6 5.7
2016-May-25 20:33N 47°40' W 003°29'10 9.9
2016-May-25 19:33N 47°38' W 003°43'  
2016-May-23 01:30N 47°35' W 003°44'9 9.0
2016-May-23 00:33N 47°39' W 003°33'8 8.3
2016-May-22 23:33N 47°43' W 003°22'0 0.4
2016-May-22 22:34N 47°44' W 003°22'0 0.2
2016-May-22 21:33N 47°44' W 003°22'0 0.0
2016-May-22 20:34N 47°44' W 003°22'4 4.4
2016-May-22 19:33N 47°41' W 003°27'9 9.3
2016-May-22 18:33N 47°39' W 003°40'34 1.1
2016-May-21 12:04N 47°23' W 004°25'8 0.7
2016-May-21 01:30N 47°17' W 004°32'3 3.5
2016-May-21 00:33N 47°18' W 004°36'4 3.6
2016-May-20 23:32N 47°18' W 004°42'2 1.9
2016-May-20 22:34N 47°19' W 004°44'6 3.0
2016-May-20 20:31N 47°25' W 004°46'  
Track history (hours):
 
Tides and Currents Weather Stations Pressure Air Temp Water Temp Dewpoint Dewpoint Depression Visibility Wind Speed Wind Dir Waves Ship Positions

F/V Le Dolmen

Last reported at 2016-May-30 00:33 UTC. Time now 2016-May-30 01:03 UTC.
Position N 47°44' W 003°22'.

Length 18 m.

Type: Fishing. MMSI: 228374000.

Date/timePositionNaut miles runAvg speedWind from/ knotsBaromVisibWave heightAir tempDewpointWater temp
2016-May-30 00:33N 47°44' W 003°22'0 0.0
2016-May-29 23:33N 47°44' W 003°22'0 0.0
2016-May-29 22:33N 47°44' W 003°22'0 0.0
2016-May-29 21:34N 47°44' W 003°22'0 0.0
2016-May-29 20:33N 47°44' W 003°22'0 0.0
2016-May-29 19:33N 47°44' W 003°22'0 0.0
2016-May-29 18:33N 47°44' W 003°22'0 0.0
2016-May-29 17:33N 47°44' W 003°22'0 0.0
2016-May-29 16:33N 47°44' W 003°22'0 0.0
2016-May-29 15:33N 47°44' W 003°22'0 0.0
2016-May-29 14:33N 47°44' W 003°22'0 0.0
2016-May-29 13:33N 47°44' W 003°22'3 3.5
2016-May-29 12:34N 47°41' W 003°25'7 6.5
2016-May-29 11:33N 47°39' W 003°34'7 6.6
2016-May-29 10:32N 47°36' W 003°43'37 2.0
2016-May-28 16:12N 47°26' W 004°36'2 2.3
2016-May-28 15:17N 47°28' W 004°37'1 0.1
2016-May-28 07:30N 47°27' W 004°37'2 2.0
2016-May-28 06:33N 47°25' W 004°38'1 0.7
2016-May-28 04:24N 47°27' W 004°38'1 1.4
2016-May-28 03:32N 47°25' W 004°37'6 0.3
2016-May-27 09:08N 47°25' W 004°46'49 2.2
2016-May-26 11:08N 47°39' W 003°36'6 9.8
2016-May-26 10:33N 47°40' W 003°28'5 5.1
2016-May-26 09:33N 47°44' W 003°22'0 0.0
2016-May-26 08:33N 47°44' W 003°22'0 0.0
2016-May-26 07:33N 47°44' W 003°22'0 0.0
2016-May-26 06:32N 47°44' W 003°22'0 0.0
2016-May-26 05:33N 47°44' W 003°22'0 0.0
2016-May-26 04:33N 47°44' W 003°22'0 0.0
2016-May-26 03:33N 47°44' W 003°22'0 0.0
2016-May-26 02:33N 47°44' W 003°22'0 0.0
2016-May-26 01:33N 47°44' W 003°22'0 0.0
2016-May-26 00:33N 47°44' W 003°22'0 0.0
2016-May-25 23:33N 47°44' W 003°22'0 0.1
2016-May-25 22:33N 47°44' W 003°22'0 0.0
2016-May-25 21:33N 47°44' W 003°22'6 5.7
2016-May-25 20:33N 47°40' W 003°29'10 9.9
2016-May-25 19:33N 47°38' W 003°43'  
2016-May-23 01:30N 47°35' W 003°44'9 9.0
2016-May-23 00:33N 47°39' W 003°33'8 8.3
2016-May-22 23:33N 47°43' W 003°22'0 0.4
2016-May-22 22:34N 47°44' W 003°22'0 0.2
2016-May-22 21:33N 47°44' W 003°22'0 0.0
2016-May-22 20:34N 47°44' W 003°22'4 4.4
2016-May-22 19:33N 47°41' W 003°27'9 9.3
2016-May-22 18:33N 47°39' W 003°40'34 1.1
2016-May-21 12:04N 47°23' W 004°25'8 0.7
2016-May-21 01:30N 47°17' W 004°32'3 3.5
2016-May-21 00:33N 47°18' W 004°36'4 3.6
2016-May-20 23:32N 47°18' W 004°42'2 1.9
2016-May-20 22:34N 47°19' W 004°44'6 3.0
2016-May-20 20:31N 47°25' W 004°46'  

Dump ship's entire track history